createdAt,value
2019-01-24T00:01:26.923Z,72.05
2019-01-24T00:03:56.188Z,72.34
2019-01-24T00:06:25.515Z,72.70
2019-01-24T00:08:55.882Z,72.40
2019-01-24T00:11:25.163Z,72.54
2019-01-24T00:13:54.452Z,72.73
2019-01-24T00:16:23.830Z,72.38
2019-01-24T00:18:53.140Z,72.45
2019-01-24T00:21:22.453Z,72.38
2019-01-24T00:23:51.801Z,72.04
2019-01-24T00:26:21.071Z,72.33
2019-01-24T00:28:50.353Z,72.22
2019-01-24T00:31:19.622Z,72.29
2019-01-24T00:33:48.953Z,72.05
2019-01-24T00:36:18.219Z,72.40
2019-01-24T00:38:47.547Z,72.07
2019-01-24T00:41:16.841Z,72.46
2019-01-24T00:43:46.174Z,71.90
2019-01-24T00:46:15.483Z,71.88
2019-01-24T00:48:46.601Z,71.62
2019-01-24T00:51:15.979Z,71.80
2019-01-24T00:53:45.279Z,71.38
2019-01-24T00:56:14.560Z,71.00
2019-01-24T00:58:43.877Z,71.05
2019-01-24T01:01:13.213Z,70.89
2019-01-24T01:03:42.511Z,70.14
2019-01-24T01:06:11.773Z,70.20
2019-01-24T01:08:41.117Z,70.09
2019-01-24T01:11:10.385Z,69.94
2019-01-24T01:13:39.669Z,70.49
2019-01-24T01:16:08.954Z,70.53
2019-01-24T01:18:38.266Z,70.13
2019-01-24T01:21:07.566Z,69.72
2019-01-24T01:23:36.862Z,69.34
2019-01-24T01:26:06.507Z,69.18
2019-01-24T01:28:35.746Z,68.98
2019-01-24T01:31:05.651Z,69.43
2019-01-24T01:33:34.932Z,69.82
2019-01-24T01:36:04.253Z,70.36
2019-01-24T01:38:33.539Z,68.86
2019-01-24T01:41:02.846Z,69.85
2019-01-24T01:43:32.178Z,69.20
2019-01-24T01:46:01.473Z,69.96
2019-01-24T01:48:30.747Z,69.41
2019-01-24T01:51:00.052Z,69.24
2019-01-24T01:53:29.316Z,69.64
2019-01-24T01:55:59.595Z,69.77
2019-01-24T01:58:28.886Z,70.41
2019-01-24T02:00:58.160Z,70.61
2019-01-24T02:03:27.436Z,70.87
2019-01-24T02:05:56.721Z,68.91
2019-01-24T02:08:25.999Z,69.73
2019-01-24T02:10:55.305Z,69.91
2019-01-24T02:13:24.595Z,69.69
2019-01-24T02:15:54.339Z,70.95
2019-01-24T02:18:23.598Z,70.90
2019-01-24T02:20:52.889Z,70.79
2019-01-24T02:23:22.165Z,70.95
2019-01-24T02:25:51.530Z,71.21
2019-01-24T02:28:20.835Z,71.36
2019-01-24T02:30:50.095Z,70.67
2019-01-24T02:33:20.383Z,70.71
2019-01-24T02:35:49.986Z,70.31
2019-01-24T02:38:19.312Z,70.78
2019-01-24T02:40:48.624Z,71.40
2019-01-24T02:43:17.911Z,70.86
2019-01-24T02:45:47.192Z,70.46
2019-01-24T02:48:16.475Z,70.38
2019-01-24T02:50:45.783Z,70.43
2019-01-24T02:53:15.069Z,70.78
2019-01-24T02:55:44.324Z,71.03
2019-01-24T02:58:13.609Z,70.78
2019-01-24T03:00:42.883Z,70.67
2019-01-24T03:03:12.166Z,70.97
2019-01-24T03:05:41.433Z,71.15
2019-01-24T03:08:11.682Z,71.05
2019-01-24T03:10:40.958Z,71.24
2019-01-24T03:13:10.248Z,71.13
2019-01-24T03:15:39.565Z,70.98
2019-01-24T03:18:08.945Z,70.88
2019-01-24T03:20:40.025Z,70.89
2019-01-24T03:23:09.294Z,70.72
2019-01-24T03:25:38.590Z,70.32
2019-01-24T03:28:07.906Z,70.98
2019-01-24T03:30:37.206Z,70.63
2019-01-24T03:33:06.491Z,69.94
2019-01-24T03:35:35.760Z,69.63
2019-01-24T03:38:05.041Z,70.51
2019-01-24T03:40:34.309Z,71.10
2019-01-24T03:43:03.609Z,70.86
2019-01-24T03:45:33.991Z,71.02
2019-01-24T03:48:03.299Z,70.72
2019-01-24T03:50:32.565Z,70.53
2019-01-24T03:53:01.857Z,71.06
2019-01-24T03:55:31.159Z,70.55
2019-01-24T03:58:00.418Z,70.37
2019-01-24T04:00:29.906Z,69.81
2019-01-24T04:02:59.185Z,70.44
2019-01-24T04:05:28.468Z,70.18
2019-01-24T04:07:57.742Z,70.69
2019-01-24T04:10:27.004Z,71.00
2019-01-24T04:12:56.287Z,70.96
2019-01-24T04:15:26.795Z,70.47
2019-01-24T04:17:56.441Z,71.11
2019-01-24T04:20:25.818Z,71.27
2019-01-24T04:22:55.078Z,71.29
2019-01-24T04:25:24.414Z,71.40
2019-01-24T04:27:53.682Z,71.53
2019-01-24T04:30:24.217Z,71.31
2019-01-24T04:32:53.474Z,71.00
2019-01-24T04:35:23.170Z,70.50
2019-01-24T04:37:52.458Z,70.56
2019-01-24T04:40:21.953Z,70.82
2019-01-24T04:42:51.247Z,70.63
2019-01-24T04:45:20.819Z,70.79
2019-01-24T04:47:50.093Z,70.71
2019-01-24T04:50:19.793Z,70.78
2019-01-24T04:52:49.073Z,71.08
2019-01-24T04:55:20.199Z,71.09
2019-01-24T04:57:49.898Z,70.36
2019-01-24T05:00:27.354Z,69.97
2019-01-24T05:02:56.726Z,71.36
2019-01-24T05:05:27.964Z,71.88
2019-01-24T05:07:57.200Z,71.63
2019-01-24T05:10:26.479Z,71.81
2019-01-24T05:12:55.750Z,71.50
2019-01-24T05:15:25.017Z,71.80
2019-01-24T05:17:54.322Z,72.17
2019-01-24T05:20:23.657Z,72.46
2019-01-24T05:22:52.876Z,72.17
2019-01-24T05:25:22.162Z,72.58
2019-01-24T05:27:51.434Z,73.59
2019-01-24T05:30:26.549Z,73.10
2019-01-24T05:32:55.909Z,73.58
2019-01-24T05:35:25.515Z,73.92
2019-01-24T05:37:54.800Z,73.74
2019-01-24T05:40:24.093Z,74.01
2019-01-24T05:42:53.385Z,73.54
2019-01-24T05:45:22.873Z,72.91
2019-01-24T05:47:52.144Z,73.55
2019-01-24T05:50:21.423Z,73.83
2019-01-24T05:52:50.685Z,73.90
2019-01-24T05:55:19.977Z,74.26
2019-01-24T05:57:49.257Z,74.09
2019-01-24T06:03:08.076Z,74.77
2019-01-24T06:05:41.854Z,75.16
2019-01-24T06:08:11.096Z,75.32
2019-01-24T06:10:41.207Z,75.21
2019-01-24T06:13:11.171Z,75.16
2019-01-24T06:15:41.061Z,75.29
2019-01-24T06:18:12.320Z,75.67
2019-01-24T06:20:43.021Z,76.12
2019-01-24T06:23:13.188Z,76.07
2019-01-24T06:25:42.636Z,75.86
2019-01-24T06:28:12.208Z,76.30
2019-01-24T06:30:41.812Z,76.25
2019-01-24T06:33:11.362Z,75.61
2019-01-24T06:35:41.042Z,76.59
2019-01-24T06:38:10.548Z,76.73
2019-01-24T06:40:40.078Z,76.44
2019-01-24T06:43:09.370Z,76.55
2019-01-24T06:45:39.079Z,76.12
2019-01-24T06:48:08.561Z,76.44
2019-01-24T06:50:38.248Z,76.15
2019-01-24T06:53:08.004Z,76.13
2019-01-24T06:55:37.729Z,76.22
2019-01-24T06:58:07.423Z,76.42
2019-01-24T07:00:36.770Z,76.33
2019-01-24T07:03:06.411Z,76.46
2019-01-24T07:05:35.722Z,76.45
2019-01-24T07:08:06.569Z,76.63
2019-01-24T07:10:35.864Z,76.12
2019-01-24T07:13:05.121Z,76.24
2019-01-24T07:15:34.462Z,76.15
2019-01-24T07:18:03.761Z,75.77
2019-01-24T07:20:33.051Z,75.73
2019-01-24T07:23:02.337Z,75.97
2019-01-24T07:25:31.801Z,76.01
2019-01-24T07:28:01.198Z,76.12
2019-01-24T07:30:31.513Z,75.23
2019-01-24T07:33:00.813Z,75.25
2019-01-24T07:35:30.093Z,75.52
2019-01-24T07:37:59.391Z,75.67
2019-01-24T07:40:28.695Z,75.70
2019-01-24T07:42:57.963Z,75.77
2019-01-24T07:45:39.164Z,74.29
2019-01-24T07:48:08.661Z,74.83
2019-01-24T07:50:37.971Z,75.69
2019-01-24T07:53:08.460Z,75.73
2019-01-24T07:55:40.377Z,75.35
2019-01-24T07:58:10.788Z,75.91
2019-01-24T08:00:40.102Z,75.72
2019-01-24T08:03:09.430Z,74.96
2019-01-24T08:05:38.701Z,75.88
2019-01-24T08:08:07.986Z,76.13
2019-01-24T08:10:37.324Z,75.80
2019-01-24T08:13:08.546Z,75.68
2019-01-24T08:15:38.032Z,75.57
2019-01-24T08:18:07.302Z,75.81
2019-01-24T08:20:38.135Z,75.55
2019-01-24T08:23:07.530Z,76.14
2019-01-24T08:25:36.824Z,75.24
2019-01-24T08:28:07.267Z,75.28
2019-01-24T08:30:37.776Z,75.10
2019-01-24T08:33:07.060Z,74.95
2019-01-24T08:35:36.515Z,75.19
2019-01-24T08:38:06.220Z,75.58
2019-01-24T08:40:35.640Z,74.95
2019-01-24T08:43:05.130Z,75.63
2019-01-24T08:45:36.229Z,75.62
2019-01-24T08:48:05.656Z,74.76
2019-01-24T08:50:34.932Z,74.97
2019-01-24T08:53:04.468Z,75.00
2019-01-24T08:55:38.919Z,74.90
2019-01-24T08:58:09.164Z,74.72
2019-01-24T09:00:38.483Z,74.54
2019-01-24T09:03:07.753Z,74.48
2019-01-24T09:05:37.066Z,74.92
2019-01-24T09:08:06.965Z,74.79
2019-01-24T09:10:38.530Z,74.51
2019-01-24T09:13:08.762Z,74.57
2019-01-24T09:15:38.779Z,74.65
2019-01-24T09:18:09.378Z,74.86
2019-01-24T09:20:38.948Z,74.54
2019-01-24T09:23:08.846Z,74.53
2019-01-24T09:25:38.831Z,73.55
2019-01-24T09:28:14.618Z,73.86
2019-01-24T09:30:39.646Z,73.97
2019-01-24T09:33:08.935Z,73.52
2019-01-24T09:35:38.334Z,73.28
2019-01-24T09:38:07.843Z,74.01
2019-01-24T09:40:37.140Z,73.32
2019-01-24T09:43:06.669Z,72.70
2019-01-24T09:45:35.983Z,72.29
2019-01-24T09:48:06.933Z,72.56
2019-01-24T09:50:36.233Z,70.99
2019-01-24T09:53:05.646Z,71.54
2019-01-24T09:55:34.946Z,71.69
2019-01-24T09:58:04.385Z,71.65
2019-01-24T10:00:35.711Z,71.89
2019-01-24T10:03:06.029Z,71.28
2019-01-24T10:05:35.728Z,70.89
2019-01-24T10:08:05.902Z,69.83
2019-01-24T10:10:35.182Z,70.75
2019-01-24T10:13:04.861Z,71.14
2019-01-24T10:15:34.133Z,69.83
2019-01-24T10:18:03.440Z,70.49
2019-01-24T10:20:32.904Z,71.37
2019-01-24T10:23:02.204Z,71.13
2019-01-24T10:25:37.248Z,69.84
2019-01-24T10:28:07.277Z,70.13
2019-01-24T10:30:42.730Z,71.45
2019-01-24T10:33:08.175Z,71.22
2019-01-24T10:35:37.544Z,70.89
2019-01-24T10:38:06.844Z,72.22
2019-01-24T10:40:36.168Z,71.34
2019-01-24T10:43:05.957Z,68.83
2019-01-24T10:45:35.244Z,67.87
2019-01-24T10:48:04.736Z,69.38
2019-01-24T10:50:35.219Z,67.91
2019-01-24T10:53:04.815Z,67.20
2019-01-24T10:55:34.078Z,66.82
2019-01-24T10:58:04.752Z,68.00
2019-01-24T11:00:42.348Z,67.73
2019-01-24T11:03:13.914Z,66.05
2019-01-24T11:05:43.362Z,67.26
2019-01-24T11:08:12.619Z,67.37
2019-01-24T11:10:41.916Z,66.11
2019-01-24T11:13:11.185Z,65.80
2019-01-24T11:15:40.536Z,66.27
2019-01-24T11:18:10.101Z,67.78
2019-01-24T11:20:39.529Z,68.48
2019-01-24T11:23:08.870Z,67.31
2019-01-24T11:25:38.154Z,66.92
2019-01-24T11:28:07.682Z,66.67
2019-01-24T11:30:37.163Z,66.66
2019-01-24T11:33:07.620Z,66.64
2019-01-24T11:35:37.620Z,67.11
2019-01-24T11:38:07.468Z,67.43
2019-01-24T11:40:37.940Z,68.17
2019-01-24T11:43:07.642Z,67.53
2019-01-24T11:45:42.136Z,67.38
2019-01-24T11:48:11.531Z,65.69
2019-01-24T11:50:40.842Z,65.79
2019-01-24T11:53:10.113Z,65.91
2019-01-24T11:55:39.399Z,67.06
2019-01-24T11:58:09.090Z,66.95
2019-01-24T12:00:59.561Z,67.06
2019-01-24T12:03:29.857Z,67.05
2019-01-24T12:05:59.147Z,66.59
2019-01-24T12:08:28.410Z,67.51
2019-01-24T12:10:57.725Z,66.50
2019-01-24T12:13:27.048Z,66.92
2019-01-24T12:15:56.342Z,66.39
2019-01-24T12:18:25.708Z,66.61
2019-01-24T12:20:54.974Z,66.78
2019-01-24T12:23:24.288Z,66.76
2019-01-24T12:25:53.633Z,67.34
2019-01-24T12:28:22.917Z,67.19
2019-01-24T12:30:52.188Z,66.60
2019-01-24T12:33:21.789Z,66.48
2019-01-24T12:35:51.078Z,66.82
2019-01-24T12:38:20.341Z,65.87
2019-01-24T12:40:49.620Z,66.06
2019-01-24T12:43:18.893Z,66.92
2019-01-24T12:45:48.199Z,66.61
2019-01-24T12:48:17.481Z,67.01
2019-01-24T12:50:46.777Z,66.51
2019-01-24T12:53:16.039Z,65.36
2019-01-24T12:55:45.343Z,64.75
2019-01-24T12:58:14.637Z,65.74
2019-01-24T13:00:44.186Z,66.03
2019-01-24T13:03:13.507Z,66.02
2019-01-24T13:05:42.736Z,65.96
2019-01-24T13:08:12.026Z,66.29
2019-01-24T13:10:41.304Z,66.75
2019-01-24T13:13:10.652Z,67.58
2019-01-24T13:15:39.917Z,67.80
2019-01-24T13:18:09.222Z,67.41
2019-01-24T13:20:38.506Z,67.23
2019-01-24T13:23:07.994Z,67.59
2019-01-24T13:25:38.386Z,67.31
2019-01-24T13:28:08.014Z,66.75
2019-01-24T13:30:37.327Z,67.01
2019-01-24T13:33:07.499Z,67.23
2019-01-24T13:35:37.327Z,68.30
2019-01-24T13:38:07.675Z,67.75
2019-01-24T13:40:37.043Z,67.99
2019-01-24T13:43:07.522Z,68.02
2019-01-24T13:45:40.543Z,67.01
2019-01-24T13:48:10.334Z,66.76
2019-01-24T13:50:39.708Z,67.65
2019-01-24T13:53:09.646Z,68.62
2019-01-24T13:55:39.508Z,67.85
2019-01-24T13:58:09.526Z,68.83
2019-01-24T14:00:40.320Z,68.28
2019-01-24T14:03:51.086Z,67.37
2019-01-24T14:06:20.347Z,66.33
2019-01-24T14:08:49.631Z,66.76
2019-01-24T14:11:20.693Z,68.30
2019-01-24T14:13:50.025Z,67.56
2019-01-24T14:16:19.316Z,66.98
2019-01-24T14:18:48.586Z,66.83
2019-01-24T14:21:17.912Z,67.32
2019-01-24T14:23:47.199Z,66.32
2019-01-24T14:26:16.540Z,64.52
2019-01-24T14:28:45.804Z,65.52
2019-01-24T14:31:15.142Z,63.70
2019-01-24T14:33:44.431Z,63.02
2019-01-24T14:36:13.739Z,64.64
2019-01-24T14:38:43.007Z,64.75
2019-01-24T14:41:12.280Z,63.43
2019-01-24T14:43:41.663Z,62.51
2019-01-24T14:46:10.927Z,61.40
2019-01-24T14:48:40.230Z,62.23
2019-01-24T14:51:09.493Z,65.91
2019-01-24T14:53:38.781Z,67.34
2019-01-24T14:56:08.141Z,67.31
2019-01-24T14:58:37.415Z,67.61
2019-01-24T15:01:18.699Z,67.72
2019-01-24T15:03:47.973Z,66.47
2019-01-24T15:06:17.335Z,66.91
2019-01-24T15:08:46.619Z,64.64
2019-01-24T15:11:16.026Z,63.40
2019-01-24T15:13:45.303Z,63.92
2019-01-24T15:16:14.591Z,62.92
2019-01-24T15:18:45.355Z,63.15
2019-01-24T15:21:14.659Z,63.99
2019-01-24T15:23:43.982Z,64.86
2019-01-24T15:26:13.258Z,66.08
2019-01-24T15:28:42.547Z,67.19
2019-01-24T15:31:11.842Z,67.53
2019-01-24T15:33:41.113Z,67.77
2019-01-24T15:36:10.406Z,68.11
2019-01-24T15:38:39.665Z,68.43
2019-01-24T15:41:08.963Z,67.63
2019-01-24T15:43:38.235Z,67.91
2019-01-24T15:46:07.522Z,67.12
2019-01-24T15:48:42.521Z,67.21
2019-01-24T15:51:07.834Z,67.40
2019-01-24T15:53:37.170Z,67.75
2019-01-24T15:56:06.442Z,67.92
2019-01-24T15:58:35.784Z,67.42
2019-01-24T16:01:05.603Z,67.98
2019-01-24T16:03:34.913Z,67.65
2019-01-24T16:06:04.483Z,67.28
2019-01-24T16:08:33.776Z,64.69
2019-01-24T16:11:03.109Z,64.67
2019-01-24T16:13:32.429Z,64.75
2019-01-24T16:16:01.722Z,64.46
2019-01-24T16:18:32.919Z,65.22
2019-01-24T16:21:02.850Z,63.93
2019-01-24T16:23:32.441Z,62.42
2019-01-24T16:26:01.996Z,62.38
2019-01-24T16:28:33.353Z,60.12
2019-01-24T16:31:02.761Z,60.78
2019-01-24T16:33:32.001Z,61.59
2019-01-24T16:36:01.310Z,63.25
2019-01-24T16:38:30.594Z,63.07
2019-01-24T16:41:00.962Z,62.49
2019-01-24T16:43:30.250Z,62.46
2019-01-24T16:45:59.517Z,62.64
2019-01-24T16:48:29.022Z,62.76
2019-01-24T16:50:58.284Z,63.19
2019-01-24T16:53:27.594Z,63.38
2019-01-24T16:55:57.926Z,63.47
2019-01-24T16:58:28.853Z,63.90
2019-01-24T17:01:20.233Z,64.53
2019-01-24T17:03:55.526Z,64.52
2019-01-24T17:06:26.084Z,64.95
2019-01-24T17:08:58.351Z,65.63
2019-01-24T17:11:30.775Z,67.12
2019-01-24T17:14:01.655Z,67.38
2019-01-24T17:16:52.699Z,67.90
2019-01-24T17:19:24.183Z,68.62
2019-01-24T17:21:55.372Z,68.29
2019-01-24T17:24:26.831Z,68.94
2019-01-24T17:26:58.136Z,69.53
2019-01-24T17:29:49.196Z,70.69
2019-01-24T17:32:20.625Z,70.64
2019-01-24T17:34:51.545Z,70.11
2019-01-24T17:37:23.064Z,69.55
2019-01-24T17:39:59.869Z,69.84
2019-01-24T17:42:34.697Z,70.23
2019-01-24T17:45:07.546Z,71.08
2019-01-24T17:47:39.160Z,70.86
2019-01-24T17:50:10.082Z,71.81
2019-01-24T17:52:39.699Z,70.60
2019-01-24T17:55:12.550Z,70.39
2019-01-24T17:57:41.905Z,70.79
2019-01-24T18:00:16.041Z,70.33
2019-01-24T18:02:45.766Z,71.07
2019-01-24T18:05:15.296Z,71.72
2019-01-24T18:07:44.779Z,70.88
2019-01-24T18:10:20.395Z,69.99
2019-01-24T18:12:49.721Z,70.44
2019-01-24T18:15:27.244Z,71.18
2019-01-24T18:17:56.691Z,70.95
2019-01-24T18:20:28.471Z,70.42
2019-01-24T18:22:57.733Z,69.29
2019-01-24T18:25:27.052Z,69.09
2019-01-24T18:27:56.463Z,68.80
2019-01-24T18:30:27.253Z,68.92
2019-01-24T18:32:56.785Z,68.66
2019-01-24T18:35:26.305Z,68.60
2019-01-24T18:37:56.909Z,69.01
2019-01-24T18:40:27.458Z,68.85
2019-01-24T18:42:57.006Z,68.96
2019-01-24T18:45:35.089Z,68.85
2019-01-24T18:48:04.894Z,69.71
2019-01-24T18:50:34.226Z,69.31
2019-01-24T18:53:03.766Z,69.56
2019-01-24T18:55:33.360Z,69.95
2019-01-24T18:58:02.652Z,69.59
2019-01-24T19:00:57.109Z,70.35
2019-01-24T19:03:26.398Z,70.32
2019-01-24T19:05:55.674Z,70.61
2019-01-24T19:08:25.036Z,70.32
2019-01-24T19:10:54.413Z,70.19
2019-01-24T19:13:24.475Z,70.46
2019-01-24T19:15:54.017Z,70.46
2019-01-24T19:18:23.324Z,70.27
2019-01-24T19:20:52.636Z,70.57
2019-01-24T19:23:22.285Z,70.37
2019-01-24T19:25:51.566Z,71.09
2019-01-24T19:28:21.027Z,70.34
2019-01-24T19:30:50.316Z,70.42
2019-01-24T19:33:19.625Z,70.86
2019-01-24T19:35:48.946Z,70.55
2019-01-24T19:38:18.843Z,70.88
2019-01-24T19:40:48.883Z,70.64
2019-01-24T19:43:18.885Z,71.02
2019-01-24T19:45:48.193Z,70.54
2019-01-24T19:48:18.195Z,71.54
2019-01-24T19:50:47.992Z,70.58
2019-01-24T19:53:18.063Z,71.48
2019-01-24T19:55:47.335Z,71.21
2019-01-24T19:58:16.971Z,71.43
2019-01-24T20:00:46.828Z,71.63
2019-01-24T20:03:17.137Z,70.64
2019-01-24T20:05:48.459Z,70.87
2019-01-24T20:08:20.440Z,71.05
2019-01-24T20:10:49.724Z,71.50
2019-01-24T20:13:21.852Z,71.48
2019-01-24T20:15:53.610Z,71.11
2019-01-24T20:18:25.183Z,71.26
2019-01-24T20:20:57.788Z,71.94
2019-01-24T20:23:29.716Z,71.72
2019-01-24T20:26:00.183Z,71.47
2019-01-24T20:28:37.942Z,72.16
2019-01-24T20:31:09.043Z,72.74
2019-01-24T20:33:40.345Z,71.82
2019-01-24T20:36:09.901Z,72.36
2019-01-24T20:38:41.812Z,72.12
2019-01-24T20:41:13.409Z,72.11
2019-01-24T20:43:42.761Z,72.82
2019-01-24T20:46:12.430Z,72.61
2019-01-24T20:48:41.801Z,72.65
2019-01-24T20:51:11.751Z,72.36
2019-01-24T20:53:42.341Z,72.72
2019-01-24T20:56:13.008Z,72.28
2019-01-24T20:58:42.726Z,72.64
2019-01-24T21:01:12.550Z,72.59
2019-01-24T21:03:42.693Z,72.68
2019-01-24T21:06:12.740Z,72.61
2019-01-24T21:08:42.565Z,72.75
2019-01-24T21:11:13.610Z,72.78
2019-01-24T21:13:46.622Z,73.03
2019-01-24T21:16:16.696Z,73.17
2019-01-24T21:18:46.561Z,73.11
2019-01-24T21:21:16.060Z,72.94
2019-01-24T21:23:45.804Z,72.97
2019-01-24T21:26:15.432Z,72.16
2019-01-24T21:28:45.059Z,72.47
2019-01-24T21:31:14.489Z,72.54
2019-01-24T21:33:44.039Z,72.87
2019-01-24T21:36:13.714Z,72.45
2019-01-24T21:38:43.151Z,72.73
2019-01-24T21:41:12.894Z,73.00
2019-01-24T21:43:42.367Z,72.87
2019-01-24T21:46:12.123Z,73.18
2019-01-24T21:48:41.754Z,73.36
2019-01-24T21:51:11.521Z,73.13
2019-01-24T21:53:41.009Z,73.08
2019-01-24T21:56:12.146Z,73.45
2019-01-24T21:58:41.819Z,73.00
2019-01-24T22:01:13.626Z,73.22
2019-01-24T22:03:44.338Z,71.99
2019-01-24T22:06:14.460Z,71.90
2019-01-24T22:08:45.141Z,71.92
2019-01-24T22:11:14.918Z,71.86
2019-01-24T22:13:45.485Z,72.23
2019-01-24T22:16:15.496Z,71.93
2019-01-24T22:18:45.559Z,71.98
2019-01-24T22:21:15.634Z,71.69
2019-01-24T22:23:45.617Z,72.06
2019-01-24T22:26:15.662Z,71.89
2019-01-24T22:28:45.675Z,72.00
2019-01-24T22:31:15.709Z,72.36
2019-01-24T22:33:45.635Z,72.13
2019-01-24T22:36:15.677Z,72.06
2019-01-24T22:38:45.681Z,72.47
2019-01-24T22:41:15.693Z,72.74
2019-01-24T22:43:45.726Z,73.04
2019-01-24T22:46:16.679Z,73.42
2019-01-24T22:48:46.887Z,72.91
2019-01-24T22:51:17.281Z,73.25
2019-01-24T22:53:47.169Z,72.57
2019-01-24T22:56:17.641Z,73.07
2019-01-24T22:58:47.631Z,72.67
2019-01-24T23:01:44.055Z,72.44
2019-01-24T23:04:16.109Z,73.00
2019-01-24T23:06:45.910Z,72.72
2019-01-24T23:09:16.095Z,72.10
2019-01-24T23:11:46.021Z,71.82
2019-01-24T23:14:15.815Z,71.86
2019-01-24T23:16:48.448Z,72.04
2019-01-24T23:19:18.220Z,71.92
2019-01-24T23:21:49.537Z,71.81
2019-01-24T23:24:19.463Z,72.10
2019-01-24T23:26:50.120Z,72.36
2019-01-24T23:29:20.011Z,72.15
2019-01-24T23:31:49.878Z,72.32
2019-01-24T23:34:20.197Z,72.21
2019-01-24T23:36:49.716Z,72.30
2019-01-24T23:39:19.625Z,72.36
2019-01-24T23:41:49.614Z,71.85
2019-01-24T23:44:19.632Z,72.13
2019-01-24T23:46:49.674Z,72.39
2019-01-24T23:49:19.063Z,71.66
2019-01-24T23:51:48.359Z,71.73
2019-01-24T23:54:17.650Z,71.16
2019-01-24T23:56:46.942Z,71.16
2019-01-24T23:59:16.222Z,71.34
